createdAt,value
2023-01-12T00:01:46.288Z,101323.06
2023-01-12T00:04:17.212Z,101325.97
2023-01-12T00:06:51.037Z,101321.13
2023-01-12T00:09:19.850Z,101322.28
2023-01-12T00:11:50.449Z,101322.22
2023-01-12T00:14:18.165Z,101320.47
2023-01-12T00:16:48.377Z,101316.78
2023-01-12T00:19:18.969Z,101320.78
2023-01-12T00:21:56.569Z,101322.88
2023-01-12T00:24:31.963Z,101322.88
2023-01-12T00:27:01.320Z,101318.94
2023-01-12T00:29:32.397Z,101319.00
2023-01-12T00:32:09.445Z,101320.25
2023-01-12T00:34:37.045Z,101319.81
2023-01-12T00:37:05.254Z,101322.63
2023-01-12T00:39:40.737Z,101321.75
2023-01-12T00:42:31.174Z,101328.59
2023-01-12T00:45:20.124Z,101326.03
2023-01-12T00:47:47.824Z,101330.44
2023-01-12T00:50:24.902Z,101331.22
2023-01-12T00:52:52.599Z,101334.00
2023-01-12T00:55:27.079Z,101334.75
2023-01-12T00:57:55.018Z,101327.03
2023-01-12T01:00:23.620Z,101326.28
2023-01-12T01:02:53.700Z,101324.19
2023-01-12T01:05:24.202Z,101319.75
2023-01-12T01:07:51.667Z,101325.16
2023-01-12T01:10:19.288Z,101320.56
2023-01-12T01:12:47.100Z,101310.19
2023-01-12T01:15:17.608Z,101310.19
2023-01-12T01:17:47.981Z,101307.78
2023-01-12T01:20:15.509Z,101305.38
2023-01-12T01:22:43.166Z,101308.41
2023-01-12T01:25:10.873Z,101306.78
2023-01-12T01:27:41.475Z,101312.44
2023-01-12T01:30:09.646Z,101310.88
2023-01-12T01:32:37.042Z,101314.13
2023-01-12T01:35:07.223Z,101320.63
2023-01-12T01:37:34.807Z,101322.72
2023-01-12T01:40:02.407Z,101328.34
2023-01-12T01:42:30.050Z,101341.22
2023-01-12T01:45:00.160Z,101346.53
2023-01-12T01:47:39.843Z,101340.91
2023-01-12T01:50:35.773Z,101340.91
2023-01-12T01:53:08.874Z,101334.16
2023-01-12T01:55:51.425Z,101330.88
2023-01-12T01:58:32.385Z,101332.81
2023-01-12T02:01:03.042Z,101344.47
2023-01-12T02:03:39.113Z,101334.31
2023-01-12T02:06:08.752Z,101334.31
2023-01-12T02:08:47.458Z,101338.53
2023-01-12T02:11:34.468Z,101340.69
2023-01-12T02:14:20.470Z,101341.75
2023-01-12T02:16:53.931Z,101342.72
2023-01-12T02:19:43.233Z,101343.81
2023-01-12T02:22:29.174Z,101339.88
2023-01-12T02:25:27.888Z,101325.50
2023-01-12T02:28:13.209Z,101318.59
2023-01-12T02:30:59.476Z,101316.56
2023-01-12T02:33:59.858Z,101318.25
2023-01-12T02:36:38.844Z,101319.97
2023-01-12T02:39:26.730Z,101317.34
2023-01-12T02:42:22.068Z,101289.53
2023-01-12T02:45:11.402Z,101298.84
2023-01-12T02:48:00.414Z,101309.31
2023-01-12T02:50:49.119Z,101325.50
2023-01-12T02:53:28.011Z,101324.72
2023-01-12T02:55:59.214Z,101320.28
2023-01-12T02:58:32.489Z,101315.44
2023-01-12T03:01:07.461Z,101314.19
2023-01-12T03:03:39.641Z,101297.75
2023-01-12T03:06:19.189Z,101300.19
2023-01-12T03:08:49.992Z,101308.78
2023-01-12T03:11:23.724Z,101311.22
2023-01-12T03:14:00.010Z,101317.41
2023-01-12T03:16:36.033Z,101319.94
2023-01-12T03:19:28.078Z,101321.78
2023-01-12T03:22:01.987Z,101324.66
2023-01-12T03:24:37.938Z,101324.50
2023-01-12T03:27:19.832Z,101321.09
2023-01-12T03:30:10.845Z,101312.41
2023-01-12T03:32:44.959Z,101321.16
2023-01-12T03:35:17.405Z,101319.31
2023-01-12T03:38:02.612Z,101311.59
2023-01-12T03:40:39.512Z,101307.97
2023-01-12T03:43:16.051Z,101317.25
2023-01-12T03:46:01.135Z,101308.72
2023-01-12T03:48:36.266Z,101316.28
2023-01-12T03:51:17.971Z,101309.78
2023-01-12T03:53:51.795Z,101306.16
2023-01-12T03:56:25.054Z,101296.75
2023-01-12T03:58:53.281Z,101295.88
2023-01-12T04:01:26.795Z,101308.31
2023-01-12T04:03:54.370Z,101309.06
2023-01-12T04:06:28.109Z,101315.00
2023-01-12T04:08:55.538Z,101313.31
2023-01-12T04:11:41.857Z,101323.66
2023-01-12T04:14:13.622Z,101318.00
2023-01-12T04:16:41.447Z,101327.22
2023-01-12T04:19:09.092Z,101340.88
2023-01-12T04:21:55.175Z,101336.50
2023-01-12T04:24:22.805Z,101342.19
2023-01-12T04:26:50.281Z,101347.53
2023-01-12T04:29:20.921Z,101351.19
2023-01-12T04:31:51.457Z,101357.19
2023-01-12T04:34:21.615Z,101360.75
2023-01-12T04:36:49.696Z,101372.94
2023-01-12T04:39:20.336Z,101377.66
2023-01-12T04:41:48.204Z,101380.06
2023-01-12T04:44:22.062Z,101381.59
2023-01-12T04:46:56.630Z,101387.78
2023-01-12T04:49:26.223Z,101391.84
2023-01-12T04:51:53.852Z,101396.66
2023-01-12T04:54:24.307Z,101413.16
2023-01-12T04:56:54.169Z,101419.81
2023-01-12T04:59:21.723Z,101418.63
2023-01-12T05:01:57.473Z,101416.94
2023-01-12T05:04:32.358Z,101412.09
2023-01-12T05:07:07.862Z,101412.50
2023-01-12T05:09:54.254Z,101416.19
2023-01-12T05:12:24.560Z,101402.16
2023-01-12T05:14:55.808Z,101397.72
2023-01-12T05:17:23.064Z,101398.53
2023-01-12T05:19:53.626Z,101383.16
2023-01-12T05:22:24.245Z,101374.09
2023-01-12T05:24:57.586Z,101363.63
2023-01-12T05:27:25.215Z,101384.13
2023-01-12T05:29:59.638Z,101392.97
2023-01-12T05:32:27.371Z,101403.84
2023-01-12T05:34:54.888Z,101405.59
2023-01-12T05:37:22.627Z,101394.22
2023-01-12T05:39:57.168Z,101391.09
2023-01-12T05:42:43.831Z,101391.56
2023-01-12T05:45:14.278Z,101392.00
2023-01-12T05:47:42.520Z,101389.69
2023-01-12T05:50:16.389Z,101399.28
2023-01-12T05:52:52.704Z,101396.88
2023-01-12T05:55:23.273Z,101406.53
2023-01-12T05:57:53.197Z,101406.91
2023-01-12T06:00:21.075Z,101418.69
2023-01-12T06:02:50.945Z,101427.53
2023-01-12T06:05:23.708Z,101428.34
2023-01-12T06:07:54.279Z,101431.56
2023-01-12T06:10:24.796Z,101431.56
2023-01-12T06:13:11.806Z,101423.53
2023-01-12T06:15:39.868Z,101440.09
2023-01-12T06:18:10.310Z,101445.34
2023-01-12T06:20:37.845Z,101446.75
2023-01-12T06:23:10.870Z,101466.88
2023-01-12T06:25:40.938Z,101462.88
2023-01-12T06:28:13.861Z,101457.22
2023-01-12T06:30:42.207Z,101449.22
2023-01-12T06:33:09.465Z,101438.28
2023-01-12T06:35:39.562Z,101449.97
2023-01-12T06:38:10.002Z,101443.13
2023-01-12T06:40:40.277Z,101435.47
2023-01-12T06:43:10.858Z,101467.75
2023-01-12T06:45:44.379Z,101481.88
2023-01-12T06:48:15.030Z,101495.59
2023-01-12T06:50:45.454Z,101492.34
2023-01-12T06:53:15.036Z,101477.84
2023-01-12T06:55:49.507Z,101476.16
2023-01-12T06:58:18.618Z,101494.69
2023-01-12T07:00:51.418Z,101501.16
2023-01-12T07:03:27.144Z,101501.16
2023-01-12T07:05:56.745Z,101508.53
2023-01-12T07:08:28.633Z,101508.94
2023-01-12T07:11:01.099Z,101510.53
2023-01-12T07:13:31.834Z,101508.59
2023-01-12T07:16:00.174Z,101488.25
2023-01-12T07:18:33.631Z,101489.09
2023-01-12T07:21:05.343Z,101496.66
2023-01-12T07:23:42.350Z,101491.16
2023-01-12T07:26:13.288Z,101481.78
2023-01-12T07:28:43.473Z,101479.84
2023-01-12T07:31:19.600Z,101485.72
2023-01-12T07:34:02.901Z,101491.88
2023-01-12T07:36:36.463Z,101499.78
2023-01-12T07:39:04.682Z,101501.72
2023-01-12T07:41:56.880Z,101501.94
2023-01-12T07:44:33.083Z,101501.00
2023-01-12T07:47:06.418Z,101505.00
2023-01-12T07:49:51.037Z,101501.59
2023-01-12T07:52:25.979Z,101509.16
2023-01-12T07:54:57.080Z,101506.34
2023-01-12T07:57:29.900Z,101515.00
2023-01-12T08:00:06.141Z,101526.69
2023-01-12T08:02:40.814Z,101530.44
2023-01-12T08:05:14.760Z,101531.06
2023-01-12T08:07:42.779Z,101536.06
2023-01-12T08:10:18.243Z,101543.84
2023-01-12T08:12:53.834Z,101550.59
2023-01-12T08:15:33.727Z,101539.03
2023-01-12T08:18:09.239Z,101544.97
2023-01-12T08:20:46.833Z,101551.09
2023-01-12T08:23:22.571Z,101557.28
2023-01-12T08:25:56.937Z,101563.16
2023-01-12T08:28:32.215Z,101557.97
2023-01-12T08:31:10.616Z,101568.91
2023-01-12T08:33:49.583Z,101575.06
2023-01-12T08:36:21.295Z,101586.47
2023-01-12T08:38:51.840Z,101584.56
2023-01-12T08:41:34.802Z,101584.50
2023-01-12T08:44:13.512Z,101584.25
2023-01-12T08:46:55.481Z,101592.25
2023-01-12T08:49:28.247Z,101591.13
2023-01-12T08:52:03.280Z,101602.91
2023-01-12T08:54:40.008Z,101616.28
2023-01-12T08:57:10.774Z,101626.88
2023-01-12T08:59:41.294Z,101632.41
2023-01-12T09:02:21.313Z,101623.56
2023-01-12T09:05:01.417Z,101632.03
2023-01-12T09:07:43.069Z,101632.94
2023-01-12T09:10:21.159Z,101634.28
2023-01-12T09:12:56.455Z,101642.31
2023-01-12T09:15:30.163Z,101648.00
2023-01-12T09:18:05.666Z,101656.44
2023-01-12T09:20:51.160Z,101646.75
2023-01-12T09:23:24.280Z,101639.75
2023-01-12T09:25:55.773Z,101645.28
2023-01-12T09:28:28.858Z,101651.56
2023-01-12T09:31:23.626Z,101647.03
2023-01-12T09:33:57.880Z,101652.22
2023-01-12T09:36:44.837Z,101656.72
2023-01-12T09:39:27.787Z,101664.41
2023-01-12T09:42:26.979Z,101669.19
2023-01-12T09:45:19.295Z,101659.97
2023-01-12T09:47:56.487Z,101663.53
2023-01-12T09:50:35.527Z,101664.97
2023-01-12T09:53:15.464Z,101657.78
2023-01-12T09:56:04.467Z,101658.31
2023-01-12T09:59:07.892Z,101665.38
2023-01-12T10:01:46.798Z,101670.03
2023-01-12T10:04:15.352Z,101673.03
2023-01-12T10:06:48.732Z,101666.47
2023-01-12T10:09:21.014Z,101651.75
2023-01-12T10:12:00.673Z,101647.94
2023-01-12T10:14:37.392Z,101644.75
2023-01-12T10:17:20.006Z,101656.72
2023-01-12T10:20:03.338Z,101657.00
2023-01-12T10:22:47.929Z,101655.69
2023-01-12T10:25:39.130Z,101646.56
2023-01-12T10:28:34.656Z,101647.94
2023-01-12T10:31:05.635Z,101638.66
2023-01-12T10:33:45.566Z,101632.31
2023-01-12T10:36:24.830Z,101618.91
2023-01-12T10:39:00.789Z,101621.91
2023-01-12T10:41:40.414Z,101622.19
2023-01-12T10:44:21.116Z,101633.72
2023-01-12T10:47:16.823Z,101638.44
2023-01-12T10:50:32.910Z,101639.63
2023-01-12T10:53:20.647Z,101639.78
2023-01-12T10:55:58.964Z,101641.59
2023-01-12T10:58:33.970Z,101650.81
2023-01-12T11:01:14.965Z,101645.16
2023-01-12T11:03:53.719Z,101637.97
2023-01-12T11:06:38.285Z,101639.25
2023-01-12T11:09:24.168Z,101627.41
2023-01-12T11:12:02.990Z,101631.44
2023-01-12T11:14:38.286Z,101626.66
2023-01-12T11:17:51.583Z,101613.59
2023-01-12T11:20:39.747Z,101608.47
2023-01-12T11:23:36.963Z,101612.94
2023-01-12T11:26:31.525Z,101608.38
2023-01-12T11:29:31.966Z,101606.41
2023-01-12T11:32:16.883Z,101595.59
2023-01-12T11:35:20.655Z,101606.91
2023-01-12T11:37:54.110Z,101596.81
2023-01-12T11:40:37.923Z,101603.19
2023-01-12T11:43:46.883Z,101606.91
2023-01-12T11:46:27.955Z,101607.56
2023-01-12T11:49:02.458Z,101615.16
2023-01-12T11:51:33.198Z,101609.59
2023-01-12T11:54:07.436Z,101597.47
2023-01-12T11:57:01.606Z,101583.34
2023-01-12T11:59:48.010Z,101586.47
2023-01-12T12:02:24.877Z,101588.13
2023-01-12T12:05:19.916Z,101582.31
2023-01-12T12:08:11.925Z,101577.50
2023-01-12T12:11:15.153Z,101566.28
2023-01-12T12:13:43.144Z,101566.28
2023-01-12T12:16:23.052Z,101559.78
2023-01-12T12:19:15.079Z,101559.72
2023-01-12T12:21:56.367Z,101557.22
2023-01-12T12:24:32.012Z,101548.28
2023-01-12T12:27:13.144Z,101551.19
2023-01-12T12:30:05.688Z,101549.16
2023-01-12T12:32:57.970Z,101557.16
2023-01-12T12:35:49.839Z,101541.91
2023-01-12T12:39:05.441Z,101544.28
2023-01-12T12:42:04.701Z,101543.09
2023-01-12T12:45:09.678Z,101536.63
2023-01-12T12:47:53.000Z,101532.16
2023-01-12T12:50:44.742Z,101514.41
2023-01-12T12:53:35.689Z,101510.84
2023-01-12T12:56:16.090Z,101513.31
2023-01-12T12:58:50.011Z,101505.66
2023-01-12T13:01:23.477Z,101506.81
2023-01-12T13:04:05.428Z,101506.75
2023-01-12T13:06:47.299Z,101495.09
2023-01-12T13:09:21.055Z,101495.53
2023-01-12T13:12:19.171Z,101500.34
2023-01-12T13:15:25.211Z,101501.28
2023-01-12T13:18:00.775Z,101494.41
2023-01-12T13:20:50.921Z,101490.41
2023-01-12T13:23:50.657Z,101476.66
2023-01-12T13:26:39.789Z,101470.63
2023-01-12T13:29:28.861Z,101471.50
2023-01-12T13:32:31.568Z,101466.69
2023-01-12T13:35:23.143Z,101465.84
2023-01-12T13:38:28.929Z,101461.91
2023-01-12T13:41:46.402Z,101457.91
2023-01-12T13:44:46.452Z,101463.59
2023-01-12T13:47:33.535Z,101464.81
2023-01-12T13:50:05.240Z,101467.69
2023-01-12T13:52:40.404Z,101463.59
2023-01-12T13:55:27.739Z,101467.31
2023-01-12T13:58:17.478Z,101456.28
2023-01-12T14:00:58.739Z,101455.88
2023-01-12T14:04:02.379Z,101446.28
2023-01-12T14:06:51.323Z,101441.00
2023-01-12T14:09:23.110Z,101440.25
2023-01-12T14:11:59.781Z,101438.25
2023-01-12T14:15:34.749Z,101443.88
2023-01-12T14:18:27.447Z,101447.97
2023-01-12T14:21:04.575Z,101446.34
2023-01-12T14:23:46.632Z,101453.69
2023-01-12T14:26:27.384Z,101456.38
2023-01-12T14:29:03.872Z,101452.81
2023-01-12T14:31:44.692Z,101454.31
2023-01-12T14:34:41.911Z,101456.44
2023-01-12T14:37:36.996Z,101452.88
2023-01-12T14:40:21.741Z,101455.34
2023-01-12T14:43:11.341Z,101452.44
2023-01-12T14:46:15.172Z,101449.38
2023-01-12T14:48:43.997Z,101452.88
2023-01-12T14:51:24.347Z,101448.56
2023-01-12T14:53:59.063Z,101452.22
2023-01-12T14:56:56.892Z,101444.03
2023-01-12T14:59:48.705Z,101440.75
2023-01-12T15:02:28.265Z,101436.47
2023-01-12T15:05:08.148Z,101430.47
2023-01-12T15:07:52.225Z,101436.56
2023-01-12T15:10:23.455Z,101445.53
2023-01-12T15:12:56.495Z,101439.22
2023-01-12T15:15:50.254Z,101440.09
2023-01-12T15:18:36.349Z,101437.72
2023-01-12T15:21:30.992Z,101425.28
2023-01-12T15:24:20.484Z,101430.56
2023-01-12T15:27:06.008Z,101425.31
2023-01-12T15:29:40.984Z,101425.28
2023-01-12T15:32:47.473Z,101417.56
2023-01-12T15:35:26.610Z,101422.44
2023-01-12T15:38:00.006Z,101417.25
2023-01-12T15:40:34.453Z,101413.91
2023-01-12T15:43:12.834Z,101416.78
2023-01-12T15:45:45.831Z,101426.91
2023-01-12T15:48:17.177Z,101421.25
2023-01-12T15:50:51.476Z,101414.41
2023-01-12T15:53:28.222Z,101418.41
2023-01-12T15:56:00.169Z,101418.25
2023-01-12T15:58:35.019Z,101424.41
2023-01-12T16:01:10.749Z,101424.03
2023-01-12T16:04:09.557Z,101432.97
2023-01-12T16:06:48.677Z,101420.16
2023-01-12T16:09:30.939Z,101429.13
2023-01-12T16:12:07.429Z,101431.03
2023-01-12T16:14:49.946Z,101433.22
2023-01-12T16:17:28.434Z,101424.88
2023-01-12T16:20:01.771Z,101426.34
2023-01-12T16:22:39.167Z,101421.44
2023-01-12T16:25:13.247Z,101428.16
2023-01-12T16:27:47.887Z,101430.16
2023-01-12T16:30:25.998Z,101429.44
2023-01-12T16:33:00.296Z,101426.91
2023-01-12T16:35:34.182Z,101424.25
2023-01-12T16:38:06.067Z,101429.25
2023-01-12T16:40:40.838Z,101418.03
2023-01-12T16:43:21.000Z,101425.84
2023-01-12T16:45:57.244Z,101416.63
2023-01-12T16:48:31.869Z,101423.59
2023-01-12T16:51:00.964Z,101406.16
2023-01-12T16:53:33.681Z,101419.31
2023-01-12T16:56:04.299Z,101420.31
2023-01-12T16:58:33.441Z,101422.47
2023-01-12T17:01:02.099Z,101416.66
2023-01-12T17:03:34.817Z,101417.75
2023-01-12T17:06:08.221Z,101413.34
2023-01-12T17:08:38.969Z,101421.78
2023-01-12T17:11:20.942Z,101419.50
2023-01-12T17:13:55.754Z,101426.22
2023-01-12T17:16:28.279Z,101415.94
2023-01-12T17:19:02.249Z,101423.34
2023-01-12T17:21:39.093Z,101428.84
2023-01-12T17:24:12.266Z,101432.09
2023-01-12T17:26:46.959Z,101425.63
2023-01-12T17:29:22.260Z,101434.97
2023-01-12T17:32:05.091Z,101442.66
2023-01-12T17:34:43.886Z,101441.84
2023-01-12T17:37:15.309Z,101433.31
2023-01-12T17:39:48.446Z,101425.59
2023-01-12T17:42:36.166Z,101430.53
2023-01-12T17:45:15.074Z,101435.34
2023-01-12T17:47:45.061Z,101442.19
2023-01-12T17:50:19.581Z,101443.06
2023-01-12T17:52:51.829Z,101440.91
2023-01-12T17:55:20.635Z,101447.88
2023-01-12T17:57:56.166Z,101430.88
2023-01-12T18:00:30.641Z,101435.25
2023-01-12T18:03:03.685Z,101448.59
2023-01-12T18:05:35.965Z,101451.44
2023-01-12T18:08:09.533Z,101436.88
2023-01-12T18:10:42.414Z,101445.22
2023-01-12T18:13:13.564Z,101438.44
2023-01-12T18:15:49.165Z,101450.53
2023-01-12T18:18:21.508Z,101457.31
2023-01-12T18:20:52.641Z,101442.63
2023-01-12T18:23:23.464Z,101441.00
2023-01-12T18:25:54.355Z,101441.50
2023-01-12T18:28:24.768Z,101434.56
2023-01-12T18:31:04.194Z,101449.69
2023-01-12T18:33:43.527Z,101446.53
2023-01-12T18:36:26.796Z,101447.41
2023-01-12T18:39:04.828Z,101452.75
2023-01-12T18:41:56.733Z,101448.19
2023-01-12T18:44:31.459Z,101444.31
2023-01-12T18:47:23.755Z,101441.88
2023-01-12T18:50:22.422Z,101430.25
2023-01-12T18:53:13.295Z,101436.72
2023-01-12T18:55:52.306Z,101420.78
2023-01-12T18:58:29.895Z,101422.25
2023-01-12T19:01:11.664Z,101427.22
2023-01-12T19:03:42.540Z,101435.13
2023-01-12T19:06:23.686Z,101427.31
2023-01-12T19:09:13.673Z,101417.47
2023-01-12T19:11:47.123Z,101407.66
2023-01-12T19:14:40.514Z,101405.41
2023-01-12T19:17:26.842Z,101404.13
2023-01-12T19:20:02.310Z,101399.69
2023-01-12T19:22:53.840Z,101407.66
2023-01-12T19:25:42.307Z,101411.22
2023-01-12T19:28:35.587Z,101407.72
2023-01-12T19:31:11.084Z,101404.50
2023-01-12T19:33:45.328Z,101397.75
2023-01-12T19:36:24.410Z,101398.59
2023-01-12T19:39:00.360Z,101394.53
2023-01-12T19:41:51.121Z,101386.44
2023-01-12T19:44:24.402Z,101394.28
2023-01-12T19:46:51.896Z,101387.00
2023-01-12T19:49:19.439Z,101391.41
2023-01-12T19:51:51.144Z,101391.06
2023-01-12T19:54:23.850Z,101388.63
2023-01-12T19:56:51.478Z,101387.47
2023-01-12T19:59:25.521Z,101383.06
2023-01-12T20:01:58.110Z,101387.13
2023-01-12T20:04:30.366Z,101380.22
2023-01-12T20:07:03.848Z,101380.56
2023-01-12T20:09:37.573Z,101376.97
2023-01-12T20:12:11.185Z,101372.13
2023-01-12T20:14:50.270Z,101364.03
2023-01-12T20:17:25.688Z,101372.25
2023-01-12T20:19:59.407Z,101377.31
2023-01-12T20:22:35.492Z,101382.78
2023-01-12T20:25:07.160Z,101379.91
2023-01-12T20:27:43.189Z,101380.72
2023-01-12T20:30:31.887Z,101370.78
2023-01-12T20:33:11.614Z,101372.25
2023-01-12T20:35:49.799Z,101378.22
2023-01-12T20:38:22.649Z,101370.09
2023-01-12T20:40:55.457Z,101372.34
2023-01-12T20:43:25.336Z,101369.28
2023-01-12T20:45:58.122Z,101355.25
2023-01-12T20:48:34.176Z,101356.53
2023-01-12T20:51:13.882Z,101350.47
2023-01-12T20:53:49.650Z,101355.34
2023-01-12T20:56:21.977Z,101360.97
2023-01-12T20:58:55.177Z,101347.66
2023-01-12T21:01:30.912Z,101344.00
2023-01-12T21:04:04.020Z,101349.22
2023-01-12T21:06:37.461Z,101350.84
2023-01-12T21:09:08.497Z,101347.22
2023-01-12T21:11:46.998Z,101355.00
2023-01-12T21:14:23.814Z,101357.84
2023-01-12T21:16:57.707Z,101354.41
2023-01-12T21:19:27.675Z,101353.19
2023-01-12T21:21:58.123Z,101344.19
2023-01-12T21:24:32.336Z,101350.31
2023-01-12T21:27:05.072Z,101350.31
2023-01-12T21:29:38.432Z,101351.19
2023-01-12T21:32:15.747Z,101335.47
2023-01-12T21:34:51.355Z,101352.09
2023-01-12T21:37:23.838Z,101349.19
2023-01-12T21:39:57.185Z,101345.59
2023-01-12T21:42:47.035Z,101357.22
2023-01-12T21:45:23.857Z,101362.63
2023-01-12T21:47:54.426Z,101363.06
2023-01-12T21:50:25.577Z,101354.94
2023-01-12T21:52:57.917Z,101346.88
2023-01-12T21:55:35.506Z,101347.66
2023-01-12T21:58:05.448Z,101350.00
2023-01-12T22:00:35.958Z,101350.06
2023-01-12T22:03:08.249Z,101348.47
2023-01-12T22:05:49.595Z,101359.81
2023-01-12T22:08:24.687Z,101353.72
2023-01-12T22:11:12.110Z,101352.09
2023-01-12T22:13:45.309Z,101349.38
2023-01-12T22:16:17.038Z,101356.63
2023-01-12T22:18:49.200Z,101351.00
2023-01-12T22:21:19.885Z,101349.75
2023-01-12T22:23:53.621Z,101353.69
2023-01-12T22:26:24.070Z,101347.72
2023-01-12T22:28:59.974Z,101347.28
2023-01-12T22:31:38.371Z,101347.72
2023-01-12T22:34:08.676Z,101343.66
2023-01-12T22:36:44.736Z,101342.84
2023-01-12T22:39:20.510Z,101343.72
2023-01-12T22:41:55.913Z,101353.09
2023-01-12T22:44:31.398Z,101346.16
2023-01-12T22:47:06.858Z,101338.41
2023-01-12T22:49:43.467Z,101342.13
2023-01-12T22:52:13.332Z,101346.16
2023-01-12T22:54:46.517Z,101342.50
2023-01-12T22:57:19.208Z,101333.19
2023-01-12T22:59:51.842Z,101333.59
2023-01-12T23:02:48.909Z,101326.69
2023-01-12T23:05:24.125Z,101326.69
2023-01-12T23:07:55.091Z,101319.66
2023-01-12T23:10:30.596Z,101319.13
2023-01-12T23:13:17.736Z,101310.09
2023-01-12T23:15:56.608Z,101308.78
2023-01-12T23:18:34.344Z,101302.63
2023-01-12T23:21:18.424Z,101294.16
2023-01-12T23:23:50.939Z,101294.41
2023-01-12T23:26:24.664Z,101298.91
2023-01-12T23:29:02.881Z,101289.91
2023-01-12T23:31:35.391Z,101291.91
2023-01-12T23:34:13.610Z,101277.00
2023-01-12T23:36:49.660Z,101278.50
2023-01-12T23:39:27.788Z,101280.72
2023-01-12T23:42:03.193Z,101287.38
2023-01-12T23:44:40.810Z,101278.41
2023-01-12T23:47:15.821Z,101272.56
2023-01-12T23:49:51.731Z,101273.09
2023-01-12T23:52:27.516Z,101274.22
2023-01-12T23:55:03.625Z,101273.44
2023-01-12T23:57:46.037Z,101273.16
